Time;durP1;ratioP1;P1;durP2;ratioP2;P2;SDS_P1;SDS_P2;PMS_P1;PMS_P2;Temp;Humidity;BMP_temperature;BMP_pressure;BME280_temperature;BME280_humidity;BME280_pressure;Samples;Min_cycle;Max_cycle;Signal;HPM_P1;HPM_P2
2021/11/02 00:01:49;;;;;;;73.87;36.83;;;;;;;11.00;78.55;99371.66;5181169;56;1141101;-82
2021/11/02 00:06:55;;;;;;;68.43;34.57;;;;;;;10.97;79.03;99359.25;5133581;57;1141315;-84
2021/11/02 00:12:02;;;;;;;67.20;32.00;;;;;;;10.96;78.94;99365.52;5133272;56;1141042;-86
2021/11/02 00:17:16;;;;;;;36.70;23.00;;;;;;;11.01;79.06;99369.36;5140036;57;1141063;-83
2021/11/02 00:22:16;;;;;;;39.40;24.83;;;;;;;10.58;78.69;99377.97;5142018;56;1141044;-82
2021/11/02 00:27:28;;;;;;;48.00;24.60;;;;;;;10.15;80.04;99368.80;5141716;55;1141025;-86
2021/11/02 00:32:34;;;;;;;38.60;25.00;;;;;;;10.07;81.19;99367.87;5141488;57;1141060;-85
2021/11/02 00:37:40;;;;;;;36.57;23.37;;;;;;;10.03;81.93;99376.56;5192756;56;1141066;-82
2021/11/02 00:43:00;;;;;;;39.33;25.35;;;;;;;10.12;82.62;99369.08;5218173;56;1141032;-78
2021/11/02 00:48:03;;;;;;;41.23;26.63;;;;;;;10.28;83.25;99356.61;5217510;56;1141190;-82
2021/11/02 00:53:09;;;;;;;62.27;35.13;;;;;;;10.47;83.83;99344.64;5218710;56;1139024;-86
2021/11/02 00:58:16;;;;;;;61.07;34.70;;;;;;;10.58;83.79;99344.92;5218910;56;1139055;-85
2021/11/02 01:03:21;;;;;;;57.60;30.00;;;;;;;10.70;83.64;99345.55;5218521;56;1138981;-84
2021/11/02 01:08:28;;;;;;;50.47;28.97;;;;;;;10.67;83.05;99337.94;5218290;56;1139169;-85
2021/11/02 01:13:35;;;;;;;54.30;28.50;;;;;;;10.56;83.21;99321.77;5219463;56;1139021;-79
2021/11/02 01:18:40;;;;;;;46.08;26.15;;;;;;;10.56;83.64;99303.25;5232402;55;1139062;-81
2021/11/02 01:23:47;;;;;;;40.23;25.43;;;;;;;10.45;83.56;99281.00;5232564;55;1138949;-85
2021/11/02 01:28:54;;;;;;;46.03;25.97;;;;;;;10.43;84.00;99275.02;5232564;55;1139307;-82
2021/11/02 01:34:00;;;;;;;57.50;29.93;;;;;;;10.49;84.18;99271.31;5232655;56;1138955;-87
2021/11/02 01:39:07;;;;;;;52.90;30.53;;;;;;;10.61;84.76;99282.98;5240267;55;1139432;-82
2021/11/02 01:44:13;;;;;;;49.13;31.33;;;;;;;10.77;85.29;99291.92;5289282;56;1139114;-83
2021/11/02 01:49:19;;;;;;;45.87;28.13;;;;;;;10.77;84.59;99277.87;5326985;55;1139020;-80
2021/11/02 01:54:25;;;;;;;52.43;27.73;;;;;;;10.62;84.37;99268.30;5331363;55;1139121;-82
2021/11/02 01:59:35;;;;;;;43.80;28.53;;;;;;;10.63;84.97;99263.84;5331288;55;1138916;-83
2021/11/02 02:04:56;;;;;;;45.07;28.30;;;;;;;10.77;85.54;99248.77;5331015;55;1139036;-83
2021/11/02 02:10:10;;;;;;;45.23;27.77;;;;;;;10.80;85.12;99259.06;5329471;55;1141226;-81
2021/11/02 02:15:41;;;;;;;38.20;24.02;;;;;;;10.70;85.03;99263.08;5142959;57;1140976;-81
2021/11/02 02:21:11;;;;;;;37.93;23.43;;;;;;;10.73;85.50;99239.47;5062059;58;1141345;-80
2021/11/02 02:26:44;;;;;;;37.87;23.20;;;;;;;10.79;85.39;99225.17;5061857;58;1140966;-87
2021/11/02 02:31:52;;;;;;;43.27;27.27;;;;;;;10.69;85.17;99226.23;5061789;58;1141048;-87
2021/11/02 02:37:00;;;;;;;41.03;26.30;;;;;;;10.61;85.50;99224.33;4975629;58;1141310;-84
2021/11/02 02:42:08;;;;;;;44.30;27.77;;;;;;;10.67;86.04;99213.66;4920916;59;1141451;-82
2021/11/02 02:47:20;;;;;;;36.17;24.43;;;;;;;10.65;85.95;99209.84;5146459;57;1141229;-82
2021/11/02 02:52:30;;;;;;;37.57;25.47;;;;;;;10.53;85.85;99211.05;5146096;57;1141026;-80
2021/11/02 02:57:38;;;;;;;42.97;26.07;;;;;;;10.47;86.15;99210.31;5146069;57;1141176;-86
2021/11/02 03:02:51;;;;;;;34.87;24.17;;;;;;;10.48;86.37;99207.53;5145755;57;1141071;-84
2021/11/02 03:07:58;;;;;;;40.50;26.33;;;;;;;10.41;86.52;99195.88;5145893;57;1141109;-87
2021/11/02 03:13:10;;;;;;;41.93;25.93;;;;;;;10.41;87.04;99169.94;5145926;57;1140987;-85
2021/11/02 03:47:57;;;;;;;35.10;25.27;;;;;;;10.68;87.39;99169.05;5147712;56;972378;-80
2021/11/02 03:56:03;;;;;;;39.35;24.05;;;;;;;10.77;87.49;99170.27;5143646;57;1141061;-82
2021/11/02 04:23:28;;;;;;;47.43;30.93;;;;;;;10.79;87.47;99166.98;5307750;55;1141063;-77
2021/11/02 04:28:19;;;;;;;47.13;28.63;;;;;;;10.76;87.13;99163.81;5264928;55;1141055;-83
2021/11/02 05:12:23;;;;;;;113.13;45.07;;;;;;;10.62;87.63;99158.58;5141633;56;1141288;-78
2021/11/02 05:54:59;;;;;;;40.50;24.30;;;;;;;10.44;89.95;99153.30;5213998;56;1136768;-84
2021/11/02 06:00:08;;;;;;;32.37;22.33;;;;;;;10.44;89.68;99150.65;5144105;56;1138943;-80
2021/11/02 06:05:44;;;;;;;39.93;26.40;;;;;;;10.45;89.80;99150.16;5141961;56;1138956;-79
2021/11/02 06:10:58;;;;;;;41.90;26.67;;;;;;;10.45;90.33;99155.45;5141485;56;1139179;-84
2021/11/02 06:32:07;;;;;;;43.07;29.37;;;;;;;10.50;90.59;99143.94;5140977;57;1141089;-83
2021/11/02 06:37:29;;;;;;;72.73;44.13;;;;;;;10.52;90.81;99139.33;5187343;56;1141038;-80
2021/11/02 06:42:45;;;;;;;141.18;88.15;;;;;;;10.55;90.58;99133.72;5224406;56;1141167;-79
2021/11/02 06:59:04;;;;;;;41.43;27.20;;;;;;;10.55;90.49;99111.25;5211752;56;1141045;-84
2021/11/02 08:46:42;;;;;;;24.35;17.35;;;;;;;10.22;93.85;99096.95;5210718;56;1140936;-82
2021/11/02 08:51:46;;;;;;;25.67;19.07;;;;;;;10.16;93.96;99097.02;5209043;56;1140989;-84
2021/11/02 08:56:57;;;;;;;26.85;19.32;;;;;;;10.12;93.66;99096.14;5274213;56;1140960;-81
2021/11/02 09:02:09;;;;;;;24.23;16.43;;;;;;;10.09;94.15;99100.40;5210748;56;1140973;-79
2021/11/02 09:07:20;;;;;;;28.10;18.80;;;;;;;10.09;93.97;99098.59;5210465;56;1141048;-83
2021/11/02 09:12:31;;;;;;;33.93;19.87;;;;;;;10.08;94.59;99097.45;5211676;56;1141077;-81
2021/11/02 09:17:44;;;;;;;29.57;19.83;;;;;;;10.07;94.45;99107.19;5210697;56;1141377;-83
2021/11/02 09:22:50;;;;;;;34.67;21.05;;;;;;;10.06;94.53;99093.63;5059625;57;1141026;-80
2021/11/02 09:27:56;;;;;;;34.00;23.13;;;;;;;10.10;95.02;99092.81;5298675;56;1141160;-79
2021/11/02 09:33:02;;;;;;;33.97;23.50;;;;;;;10.19;95.99;99097.25;5297583;56;1141339;-81
2021/11/02 09:38:24;;;;;;;40.70;26.40;;;;;;;10.23;95.32;99098.09;5231267;56;1140971;-82
2021/11/02 09:43:39;;;;;;;39.37;26.77;;;;;;;10.26;95.46;99093.48;5177724;56;1141145;-84
2021/11/02 09:49:32;;;;;;;53.63;38.57;;;;;;;10.33;95.32;99092.75;5208100;56;1141148;-85
2021/11/02 09:55:20;;;;;;;51.40;31.30;;;;;;;10.37;95.21;99071.64;5210445;56;1141297;-87
2021/11/02 10:01:04;;;;;;;40.33;27.57;;;;;;;10.34;95.34;99075.08;5049269;57;1139194;-81
2021/11/02 10:06:22;;;;;;;54.23;36.25;;;;;;;10.36;95.90;99076.59;5048816;57;1139182;-82
2021/11/02 10:12:00;;;;;;;41.77;27.80;;;;;;;10.41;95.62;99073.47;5095228;56;1137870;-80
2021/11/02 10:17:13;;;;;;;51.37;32.03;;;;;;;10.46;95.63;99068.56;5131847;57;1141499;-76
2021/11/02 10:22:58;;;;;;;72.00;45.83;;;;;;;10.40;95.61;99069.99;5088239;57;1141188;-82
2021/11/02 10:28:37;;;;;;;49.48;32.25;;;;;;;10.45;95.72;99072.19;5030706;57;1141228;-84
2021/11/02 10:33:56;;;;;;;52.97;32.93;;;;;;;10.46;95.84;99061.46;5071318;56;1141009;-80
2021/11/02 10:39:26;;;;;;;287.73;120.43;;;;;;;10.49;95.84;99062.97;5174346;56;1141037;-81
2021/11/02 10:44:48;;;;;;;140.10;79.47;;;;;;;10.46;96.17;99052.70;5136675;56;1145222;-79
2021/11/02 10:50:12;;;;;;;157.40;83.67;;;;;;;10.52;96.05;99058.70;5141383;57;1143125;-85
2021/11/02 10:55:59;;;;;;;91.53;52.05;;;;;;;10.57;96.07;99061.20;5141618;57;1141138;-77
2021/11/02 11:01:08;;;;;;;80.87;45.47;;;;;;;10.59;95.97;99054.45;5061358;57;1138902;-80
2021/11/02 11:06:16;;;;;;;126.07;71.07;;;;;;;10.57;96.11;99056.41;5061082;58;1139090;-82
2021/11/02 11:11:26;;;;;;;154.05;80.75;;;;;;;10.62;96.12;99053.31;5046202;58;1141298;-80
2021/11/02 11:16:35;;;;;;;93.97;62.13;;;;;;;10.65;95.93;99063.09;5189375;57;1141060;-83
2021/11/02 11:21:44;;;;;;;147.37;74.70;;;;;;;10.69;95.95;99059.16;5070066;57;1139034;-81
2021/11/02 11:26:53;;;;;;;80.50;45.20;;;;;;;10.75;96.21;99063.81;5173182;57;1139528;-84
2021/11/02 11:32:01;;;;;;;66.53;39.70;;;;;;;10.76;96.02;99057.54;5114151;57;1141101;-77
2021/11/02 11:37:08;;;;;;;139.53;99.23;;;;;;;10.77;95.78;99049.95;5052218;58;1141095;-86
2021/11/02 11:42:18;;;;;;;58.38;36.90;;;;;;;10.83;96.07;99049.83;5059790;58;1143001;-79
2021/11/02 11:47:26;;;;;;;56.70;35.07;;;;;;;10.87;95.87;99053.79;5057309;58;1141187;-83
2021/11/02 11:52:34;;;;;;;17.57;10.40;;;;;;;10.74;95.55;99058.18;5063686;58;1140989;-83
2021/11/02 11:57:40;;;;;;;9.45;5.65;;;;;;;10.50;96.07;99063.31;5022389;58;1141263;-81
2021/11/02 12:02:56;;;;;;;3.77;3.23;;;;;;;10.14;96.34;99075.20;5178823;57;1136702;-83
2021/11/02 12:08:09;;;;;;;5.40;4.20;;;;;;;9.94;97.36;99076.81;5104952;58;1136892;-82
2021/11/02 12:13:16;;;;;;;3.75;3.35;;;;;;;9.78;98.04;99075.66;5109579;57;1134963;-82
2021/11/02 12:18:24;;;;;;;2.37;2.17;;;;;;;9.73;98.32;99083.22;5195351;57;1134851;-82
2021/11/02 12:23:40;;;;;;;5.93;3.20;;;;;;;9.71;98.49;99094.42;5085998;57;1134790;-87
2021/11/02 12:28:48;;;;;;;8.00;3.20;;;;;;;9.71;98.78;99094.91;5294226;55;1134874;-84
2021/11/02 12:33:54;;;;;;;2.47;2.27;;;;;;;9.69;99.16;99099.50;5294514;56;1134821;-79
2021/11/02 12:39:04;;;;;;;2.57;2.27;;;;;;;9.69;100.00;99100.33;5211429;56;1134856;-85
2021/11/02 12:44:15;;;;;;;2.20;2.00;;;;;;;9.66;100.00;99102.42;5205060;56;1136862;-79
2021/11/02 12:49:28;;;;;;;1.83;1.50;;;;;;;9.63;99.88;99104.03;5205506;57;1136912;-80
2021/11/02 12:54:37;;;;;;;1.90;1.80;;;;;;;9.62;100.00;99102.41;5204833;56;1134814;-81
2021/11/02 12:59:52;;;;;;;1.87;1.77;;;;;;;9.62;100.00;99098.45;5205836;57;1136951;-86
2021/11/02 13:05:18;;;;;;;1.20;1.10;;;;;;;9.62;100.00;99106.36;5175718;56;1136946;-83
2021/11/02 13:10:24;;;;;;;2.47;1.30;;;;;;;9.59;100.00;99106.16;5287218;55;1137063;-85
2021/11/02 13:15:32;;;;;;;1.37;1.20;;;;;;;9.51;100.00;99113.97;5178729;56;1136890;-84
2021/11/02 13:20:41;;;;;;;2.08;1.40;;;;;;;9.34;100.00;99124.80;5319960;55;1136933;-83
2021/11/02 13:25:48;;;;;;;1.27;1.13;;;;;;;9.17;100.00;99126.88;5255369;55;1134823;-84
2021/11/02 13:30:54;;;;;;;2.00;1.13;;;;;;;9.12;100.00;99130.45;5229347;55;1135170;-84
2021/11/02 13:36:06;;;;;;;1.87;1.30;;;;;;;9.09;100.00;99134.20;5229145;55;1134906;-84
2021/11/02 13:56:35;;;;;;;1.03;0.97;;;;;;;8.97;100.00;99137.98;5338161;55;46354;-83
2021/11/02 14:01:51;;;;;;;0.83;0.60;;;;;;;8.68;100.00;99159.13;5215948;56;1132792;-86
2021/11/02 14:07:16;;;;;;;1.80;0.93;;;;;;;8.59;100.00;99170.49;5149991;57;1136901;-78
2021/11/02 14:12:30;;;;;;;1.63;1.13;;;;;;;8.57;100.00;99167.64;5119978;56;1136890;-82
2021/11/02 14:17:36;;;;;;;1.47;1.07;;;;;;;8.58;100.00;99169.31;5140202;56;1136944;-81
2021/11/02 14:22:52;;;;;;;0.90;0.80;;;;;;;8.61;100.00;99164.60;5138408;57;1136973;-82
2021/11/02 14:27:59;;;;;;;6.27;4.00;;;;;;;8.65;100.00;99172.59;5149504;56;1136885;-83
2021/11/02 14:33:11;;;;;;;1.67;1.53;;;;;;;8.66;100.00;99170.30;5149880;56;1136903;-82
2021/11/02 14:38:23;;;;;;;5.73;1.60;;;;;;;8.61;100.00;99177.78;5200803;54;1136365;-81
2021/11/02 14:43:34;;;;;;;2.07;1.50;;;;;;;8.58;100.00;99167.99;5179665;56;1136931;-82
2021/11/02 14:48:49;;;;;;;42.67;34.33;;;;;;;8.60;100.00;99177.43;5139798;56;1136835;-80
2021/11/02 14:53:57;;;;;;;19.80;11.40;;;;;;;8.66;100.00;99183.95;5203096;56;1141256;-82
2021/11/02 14:59:07;;;;;;;5.80;4.00;;;;;;;8.69;100.00;99185.84;5115368;56;1141068;-89
2021/11/02 15:04:18;;;;;;;4.87;2.27;;;;;;;8.75;100.00;99182.62;5095726;57;1136934;-87
2021/11/02 15:09:31;;;;;;;48.23;16.20;;;;;;;8.80;100.00;99184.84;5115922;57;1137071;-78
2021/11/02 15:14:41;;;;;;;42.20;18.60;;;;;;;8.85;100.00;99180.00;5269659;55;1141301;-82
2021/11/02 15:19:49;;;;;;;18.20;9.73;;;;;;;8.87;100.00;99187.73;5276849;55;1139258;-85
2021/11/02 15:25:01;;;;;;;25.65;12.63;;;;;;;8.87;100.00;99171.44;5242196;56;1136946;-86
2021/11/02 15:30:13;;;;;;;12.57;9.33;;;;;;;8.84;100.00;99178.33;5242682;56;1139013;-83
2021/11/02 15:35:23;;;;;;;12.33;6.83;;;;;;;8.83;100.00;99178.47;5242649;56;1136904;-81
2021/11/02 15:40:42;;;;;;;16.17;7.57;;;;;;;8.82;100.00;99182.91;5242388;56;1136920;-80
2021/11/02 15:45:50;;;;;;;19.87;8.15;;;;;;;8.79;100.00;99192.41;5242338;56;1136865;-83
2021/11/02 15:50:57;;;;;;;48.77;15.77;;;;;;;8.75;100.00;99195.80;5214640;56;1136955;-82
2021/11/02 15:56:04;;;;;;;45.53;15.63;;;;;;;8.73;100.00;99200.86;5211176;55;1138904;-82
2021/11/02 16:01:10;;;;;;;59.30;19.90;;;;;;;8.73;100.00;99211.41;5210896;56;1138962;-83
2021/11/02 16:06:17;;;;;;;56.07;21.57;;;;;;;8.74;100.00;99209.12;5173595;55;1139063;-80
2021/11/02 16:11:25;;;;;;;61.07;43.77;;;;;;;8.77;100.00;99212.80;5119552;57;1137115;-86
2021/11/02 16:16:31;;;;;;;204.30;93.27;;;;;;;8.80;100.00;99222.59;5153484;56;1137452;-83
2021/11/02 16:21:37;;;;;;;191.40;64.17;;;;;;;8.80;100.00;99222.59;5140224;57;1143467;-81
2021/11/02 16:26:43;;;;;;;75.73;39.07;;;;;;;8.84;100.00;99223.15;5075719;57;1143130;-81
2021/11/02 16:31:49;;;;;;;68.83;47.27;;;;;;;8.91;100.00;99232.64;5078181;57;1141250;-85
2021/11/02 16:36:58;;;;;;;26.53;17.17;;;;;;;8.91;100.00;99239.23;5224984;55;1141037;-84
2021/11/02 16:42:07;;;;;;;14.17;8.77;;;;;;;8.87;100.00;99245.26;5247203;55;1141248;-79
2021/11/02 16:47:22;;;;;;;22.77;13.33;;;;;;;8.94;100.00;99258.73;5263794;55;1139082;-78
2021/11/02 16:52:31;;;;;;;20.20;11.30;;;;;;;8.88;100.00;99249.56;5278869;55;1141084;-77
2021/11/02 16:57:37;;;;;;;29.57;13.60;;;;;;;8.95;100.00;99257.28;5234306;55;1141102;-77
2021/11/02 17:02:46;;;;;;;18.43;9.80;;;;;;;8.89;100.00;99255.19;5191197;56;1140997;-75
2021/11/02 17:08:05;;;;;;;34.43;16.30;;;;;;;8.85;100.00;99272.27;5175816;56;1139016;-76
2021/11/02 17:13:28;;;;;;;42.60;17.80;;;;;;;8.79;100.00;99272.81;5073365;57;1141133;-76
2021/11/02 17:19:01;;;;;;;29.90;13.80;;;;;;;8.84;100.00;99281.16;5157167;56;1141183;-77
2021/11/02 17:24:10;;;;;;;25.43;13.00;;;;;;;8.80;100.00;99292.45;5200274;56;1141104;-77
2021/11/02 17:29:17;;;;;;;36.00;16.07;;;;;;;8.79;100.00;99292.10;5237575;55;1140589;-75
2021/11/02 17:34:23;;;;;;;93.43;32.13;;;;;;;8.77;100.00;99293.20;5259183;55;1141265;-76
2021/11/02 17:39:30;;;;;;;271.20;212.30;;;;;;;8.71;100.00;99293.73;5161650;56;1141330;-76
2021/11/02 17:44:38;;;;;;;78.90;28.03;;;;;;;8.61;100.00;99293.73;5256776;55;1145407;-77
2021/11/02 17:49:44;;;;;;;16.00;7.03;;;;;;;8.54;100.00;99304.49;5290115;55;1141120;-77
2021/11/02 17:54:51;;;;;;;30.30;10.30;;;;;;;8.51;100.00;99307.87;5283703;55;1139132;-76
2021/11/02 17:59:57;;;;;;;33.87;12.30;;;;;;;8.42;100.00;99305.55;5171815;55;1141221;-77
2021/11/02 18:05:05;;;;;;;23.30;9.60;;;;;;;8.36;100.00;99308.26;5130964;57;1141176;-77
2021/11/02 18:10:12;;;;;;;28.50;11.57;;;;;;;8.36;100.00;99306.11;5111809;57;1139166;-76
2021/11/02 18:15:18;;;;;;;17.47;8.43;;;;;;;8.33;100.00;99310.32;5188726;56;1139024;-76
2021/11/02 18:20:25;;;;;;;26.47;11.27;;;;;;;8.31;100.00;99308.27;5216969;56;1137242;-76
2021/11/02 18:25:31;;;;;;;29.70;12.40;;;;;;;8.31;100.00;99311.73;5131649;57;1139079;-77
2021/11/02 18:30:37;;;;;;;32.20;10.20;;;;;;;8.30;100.00;99317.14;5172755;55;1139306;-75
2021/11/02 18:35:43;;;;;;;64.30;17.43;;;;;;;8.27;100.00;99332.72;5046576;58;1139339;-76
2021/11/02 18:40:49;;;;;;;99.05;27.82;;;;;;;8.22;100.00;99329.67;5144619;56;1139346;-77
2021/11/02 18:45:57;;;;;;;53.68;17.73;;;;;;;8.16;100.00;99335.45;5215328;56;1138979;-76
2021/11/02 18:51:03;;;;;;;35.90;14.20;;;;;;;8.10;100.00;99324.95;5174230;56;1139120;-76
2021/11/02 18:56:11;;;;;;;28.10;13.20;;;;;;;8.07;100.00;99323.09;5201552;55;1139186;-77
2021/11/02 19:01:19;;;;;;;46.50;18.37;;;;;;;8.03;100.00;99324.31;5293420;54;1139057;-77
2021/11/02 19:06:28;;;;;;;10.90;6.63;;;;;;;7.95;100.00;99324.96;5279826;54;1138962;-77
2021/11/02 19:11:34;;;;;;;12.33;7.17;;;;;;;7.88;100.00;99329.09;5296745;54;1137021;-77
2021/11/02 19:16:41;;;;;;;15.20;7.27;;;;;;;7.81;100.00;99332.37;5278811;55;1136972;-77
2021/11/02 19:21:48;;;;;;;25.93;11.57;;;;;;;7.73;100.00;99340.93;5283324;55;1137084;-76
2021/11/02 19:26:54;;;;;;;18.37;8.10;;;;;;;7.66;100.00;99343.72;5263539;55;1139016;-76
2021/11/02 19:32:00;;;;;;;10.00;6.23;;;;;;;7.65;100.00;99355.20;5315055;55;1136867;-77
2021/11/02 19:37:06;;;;;;;10.57;6.70;;;;;;;7.61;100.00;99366.97;5327277;55;1135102;-77
2021/11/02 19:42:11;;;;;;;13.27;8.57;;;;;;;7.62;100.00;99362.89;5308858;55;1135061;-77
2021/11/02 19:47:18;;;;;;;25.53;17.40;;;;;;;7.67;100.00;99367.27;5254059;55;1139047;-78
2021/11/02 19:52:26;;;;;;;16.10;10.13;;;;;;;7.66;100.00;99369.55;5324976;55;1141050;-77
2021/11/02 19:57:32;;;;;;;20.07;11.27;;;;;;;7.69;100.00;99378.98;5319640;55;1141067;-78
2021/11/02 20:02:38;;;;;;;29.07;12.60;;;;;;;7.71;100.00;99374.44;5303146;55;1141032;-77
2021/11/02 20:07:57;;;;;;;45.10;16.67;;;;;;;7.69;100.00;99378.98;5295786;55;1141613;-78
2021/11/02 20:13:12;;;;;;;38.17;14.07;;;;;;;7.63;100.00;99386.94;5297249;55;1141015;-78
2021/11/02 20:18:22;;;;;;;11.48;6.83;;;;;;;7.62;100.00;99387.89;5265368;55;1141082;-78
2021/11/02 20:23:30;;;;;;;17.17;11.17;;;;;;;7.62;100.00;99387.89;5271037;55;1138938;-76
2021/11/02 20:28:38;;;;;;;21.30;14.47;;;;;;;7.61;100.00;99393.28;5265292;55;1141039;-76
2021/11/02 20:33:45;;;;;;;20.07;12.17;;;;;;;7.65;100.00;99395.98;5266914;55;1141108;-76
2021/11/02 20:38:51;;;;;;;14.07;9.10;;;;;;;7.64;100.00;99395.16;5270997;55;1141050;-76
2021/11/02 20:44:04;;;;;;;15.10;9.13;;;;;;;7.65;100.00;99393.36;5163814;56;1139099;-79
2021/11/02 20:49:15;;;;;;;16.75;10.88;;;;;;;7.66;100.00;99397.18;5279695;55;1138951;-76
2021/11/02 20:54:22;;;;;;;14.10;9.93;;;;;;;7.66;100.00;99394.55;5269732;55;1141360;-79
2021/11/02 20:59:28;;;;;;;12.60;8.47;;;;;;;7.67;100.00;99392.27;5258302;55;1139023;-79
2021/11/02 21:04:36;;;;;;;19.03;12.80;;;;;;;7.66;100.00;99395.03;5240052;56;1139033;-79
2021/11/02 21:09:51;;;;;;;29.43;19.43;;;;;;;7.69;100.00;99403.98;5239870;56;1141129;-76
2021/11/02 21:14:57;;;;;;;12.97;9.23;;;;;;;7.68;100.00;99411.53;5222161;56;1141164;-76
2021/11/02 21:20:13;;;;;;;12.73;9.63;;;;;;;7.67;100.00;99409.86;5194904;55;1139005;-77
2021/11/02 21:25:21;;;;;;;12.20;8.68;;;;;;;7.64;100.00;99407.47;5199311;56;1138895;-78
2021/11/02 21:30:30;;;;;;;8.23;5.73;;;;;;;7.63;100.00;99409.78;5184367;56;1139077;-78
2021/11/02 21:35:36;;;;;;;10.27;7.57;;;;;;;7.52;100.00;99419.02;5141209;56;1136973;-79
2021/11/02 21:40:43;;;;;;;9.03;6.80;;;;;;;7.45;100.00;99425.77;5141164;56;1139033;-77
2021/11/02 21:45:51;;;;;;;9.00;7.23;;;;;;;7.38;100.00;99428.05;5150484;56;1137015;-79
2021/11/02 21:51:00;;;;;;;10.37;7.67;;;;;;;7.39;100.00;99427.09;5280021;55;1137224;-77
2021/11/02 21:56:14;;;;;;;10.37;8.43;;;;;;;7.44;100.00;99427.56;5307645;55;1136875;-75
2021/11/02 22:01:22;;;;;;;12.83;8.67;;;;;;;7.47;100.00;99433.05;5307547;55;1137029;-76
2021/11/02 22:06:29;;;;;;;17.73;11.30;;;;;;;7.50;100.00;99445.45;5257212;55;1137095;-75
2021/11/02 22:11:37;;;;;;;13.93;9.23;;;;;;;7.52;100.00;99440.91;5240061;56;1139060;-76
2021/11/02 22:16:44;;;;;;;14.97;10.47;;;;;;;7.59;100.00;99439.45;5153823;57;1137103;-77
2021/11/02 22:21:51;;;;;;;12.40;8.70;;;;;;;7.57;100.00;99444.48;5239318;56;1139030;-76
2021/11/02 22:26:58;;;;;;;13.37;9.10;;;;;;;7.53;100.00;99437.31;5240527;56;1137118;-79
2021/11/02 22:32:04;;;;;;;16.10;10.60;;;;;;;7.60;100.00;99436.34;5239925;56;1136938;-77
2021/11/02 22:37:11;;;;;;;30.67;12.17;;;;;;;7.59;100.00;99434.19;5239526;56;1139047;-76
2021/11/02 22:42:18;;;;;;;32.37;16.67;;;;;;;7.62;100.00;99440.52;5238454;56;1138950;-78
2021/11/02 22:47:24;;;;;;;20.80;12.23;;;;;;;7.65;100.00;99441.56;5201620;56;1139004;-78
2021/11/02 22:52:32;;;;;;;16.03;11.80;;;;;;;7.72;100.00;99451.95;5150739;56;1139007;-78
2021/11/02 22:57:38;;;;;;;20.75;14.53;;;;;;;7.71;100.00;99442.38;5151946;56;1139053;-79
2021/11/02 23:02:45;;;;;;;21.53;13.47;;;;;;;7.75;100.00;99452.18;5152318;56;1136970;-78
2021/11/02 23:07:50;;;;;;;18.10;12.73;;;;;;;7.80;100.00;99446.52;5154678;56;1137178;-78
2021/11/02 23:12:56;;;;;;;16.67;11.03;;;;;;;7.85;100.00;99449.12;5174501;57;21262;-78
2021/11/02 23:18:02;;;;;;;15.10;10.97;;;;;;;7.87;100.00;99451.63;5154829;56;1137157;-79
2021/11/02 23:23:30;;;;;;;16.75;10.72;;;;;;;7.84;100.00;99446.62;5154732;56;1141375;-78
2021/11/02 23:28:37;;;;;;;19.60;12.87;;;;;;;7.78;100.00;99450.61;5154682;56;1140771;-76
2021/11/02 23:33:45;;;;;;;21.10;11.90;;;;;;;7.84;100.00;99447.94;5154434;56;1141096;-78
2021/11/02 23:38:52;;;;;;;20.35;12.40;;;;;;;7.88;100.00;99442.30;5154542;56;1141307;-79
2021/11/02 23:43:57;;;;;;;23.57;12.80;;;;;;;7.86;100.00;99449.96;5154464;56;1141451;-79
2021/11/02 23:49:03;;;;;;;22.80;13.93;;;;;;;7.79;100.00;99452.29;5219657;56;1141181;-75
2021/11/02 23:54:14;;;;;;;19.67;12.23;;;;;;;7.76;100.00;99457.80;5240904;56;1141125;-77
2021/11/02 23:59:20;;;;;;;18.00;10.17;;;;;;;7.78;100.00;99466.41;5240979;56;1141101;-78
